Timeline UpdatesTrip UpdatesNews PostsPvt PostsTravel TipsAdmin PostsConv PostsFollowed PostsChat RequestsBlog PostsPNR Posts

Disclaimer
Search
 
 
Thu Apr 24, 2014 14:07:14 ISTHomeTrainsΣChainsAtlasPNRForumGalleryNewsFAQTripsMembersLoginFeedback
No Recent News for this Train
Other Trains in the News **new
Latest...
.
Sat Feb 02, 2013 (04:11PM)
⇐ Return Journey: Train# 51188

51187/Bhusaval Katni Passenger (UnReserved)

Feb 01 2014 (2:01PM)
Change Departure Station:
Change Arrival Station:
Post a Train Travel TipPost a Train Travel Tip **new
Post a Comment/Question/Picture/VideoPost a Comment/Question/Picture/Video
Pantry/Catering
???
RSA - Rake Sharing
Rake/Coach Composition
Loco
BSL-ET: BSL/ET WAP-4 ET-KTE: ET/KTE WDM-3A
News    PNR    Forum    Time-Table    Availability    Fare Chart    Map    Arr/Dep History    Trips    Gallery    ΣChains    X/O    Timeline    
Travel Time: 11h 42m    39 halts    Distance: 384 km    Avg Speed: 32 km/hr
Type: Passenger
Zone: CR/Central
Departs @ 15:43 (Avg 1h 31m late)
Platform# ???
SMTWTFS
Pagdhal/PGL 
Arrives @ 03:25 +1 night (Avg 3h 27m late)
Platform# ???
SMTWTFS
Katni Junction/KTE 

39 halts. 45 intermediate Stations between Pagdhal and Katni Junction

Show ALL intermediate Stations  Show Old Time-Table

#CodeStation NameX/OArrivesAvgDepartsAvgHaltPFDay#KmSpeedElevZoneAddress
1BSLBhusaval Junction (8)  -09:30+37--1-258.737208mCRBhusaval 425201, Maharashtra
2DSKDuskheda (2)X  09:41+4509:42+471m--1-252.047213mCRDuskheda Station, Maharashtra
3SAVSavda (2)X  09:53+4609:54+481m--1-243.348220mCRSavda, Maharashtra
4NBNimbhora  10:05+4710:06+511m--1-234.655229mCRJalgaon, Maharashtra
5RVRaver (2)  10:17+5010:18+551m--1-224.454242mCRJalgaon, Maharashtra
6WGAWaghodaX  10:29+5510:30+1:001m--1-214.544259mCRChorwad, Maharashtra
7BAUBurhanpur (2)X  10:44+5310:45+1:021m21-204.260269mCRBurhanpur, Madhya Pradesh
8AGQAsirgarh Road (2)  10:54+1:0810:55+1:141m--1-195.368259mCRState Highway 27, Madhya Pradesh
9CDIChandni (2)X  11:04+1:1511:05+1:201m--1-185.147276mCRNepanagar Rd, Madhya Pradesh
10NPNRNepanagar (2)  11:14+1:2111:15+1:251m--1-178.050289mCRState Highway 27, Madhya Pradesh
11MWAMandwa (2)X  11:22+1:2511:23+1:271m--1-172.260317mCRState Highway 27, Madhya Pradesh
12SXASagphata (2)  11:29+1:2811:30+1:281m--1-166.266350mCRKhandwa, Madhya Pradesh
13DGNDongargaon (2)X  11:37+1:2811:38+1:291m--1-158.591373mCRBorgaon, Madhya Pradesh
14KDKKohdad (2)X  11:43+1:2911:44+1:291m--1-150.953344mCRState Highway 15, Madhya Pradesh
15BMABagmar (2)X  11:49+1:3011:50+1:301m--1-146.590335mCRState Highway 27, Madhya Pradesh
16BRGJBargaon Gujar (2)X  11:54+1:3311:55+1:331m--1-140.56316mCRKhandwa, Madhya Pradesh
17KNWKhandwa Junction (5)X  12:50+5812:55+1:075m--1-135.444310mCRKhandwa, Madhya Pradesh
18MTAMathela (2)  13:05+1:1613:06+1:161m--1-128.056322mWCRKhandwa, Madhya Pradesh
19TLVTalvadiya (2)  13:15+1:1613:16+1:181m--1-119.671308mWCRKhandwa, Madhya Pradesh
20SGBJSurgaon Banjari (2)  13:26+1:1713:27+1:191m--1-107.974298mWCRKhandwa, Madhya Pradesh
21CKKDCharkheda Khurd (2)  13:36+1:1913:37+1:211m--1-96.751274mWCRKhandwa, Madhya Pradesh
22CAERChhanera (2)  13:45+1:2213:46+1:241m--1-89.961283mWCRChhanera, Madhya Pradesh
23BRUDBarud (2)X  13:56+1:2413:57+1:251m--1-79.857273mWCRKhandwa, Madhya Pradesh
24DRHIDagarhkeri (2)X  14:07+1:2314:08+1:271m--1-70.266274mWCRState Highway 15, Madhya Pradesh
25KKNKhirkiya (2)X  14:18+1:2714:19+1:281m21-59.348281mWCRSH 15, Madhya Pradesh
26KROKurawan (2)X  14:27+1:2614:29+1:262m--1-52.940297mWCRSH 15, Madhya Pradesh
27BRIBhiringi (2)X  14:39+1:2614:40+1:271m--1-46.244294mWCRSH 15, Madhya Pradesh
28MUOMasangaon (2)  14:47+1:2614:48+1:271m--1-41.151303mWCRSH 15, Madhya Pradesh
29PALPalasner (2)  14:55+1:2614:56+1:261m--1-35.144296mWCRHarda, Madhya Pradesh
30HDHarda (3)X  15:06+1:2315:07+1:261m--1-27.753289mWCRHarda, Madhya Pradesh
31CRKCharkhera (2)  15:15+1:2715:16+1:281m--1-20.753298mWCRBarkalan, Madhya Pradesh
32TBNTimarni (2)  15:24+1:3315:25+1:361m--1-13.671308mWCRTimarni, Madhya Pradesh
33CGOChhidgaon (2)X  15:33+1:2915:35+1:292m--1-4.135309mWCRHarda, Madhya Pradesh
34PGL»Pagdhal (2)»X  15:42+1:2915:43+1:311m--10.055317mWCRPagdhal, Madhya Pradesh
35BIFBhaironpur (2)X  15:51+1:3115:52+1:311m--17.355322mWCRSH 15, Madhya Pradesh
36BPFBanapura (2)  16:00+1:3016:01+1:341m--114.655314mWCRBanapura, Madhya Pradesh
37DKIDharamkundi (2)  16:10+1:3216:11+1:331m--122.855314mWCRSH 15, Madhya Pradesh
38KTZKhutwansa (2)X  16:19+1:3116:20+1:311m--130.238325mWCRSH 15, Madhya Pradesh
39DRADularia (2)O  16:29+1:2916:30+1:321m--135.812318mWCRItarsi, Madhya Pradesh
40ETItarsi Junction (7)X  17:30+1:0617:50+1:1120m--148.163329mWCRItarsi 461111, Madhya Pradesh
41GROGurra (2)  18:00+1:4418:02+1:482m--158.660327mWCRItarsi, Madhya Pradesh
42SQLSontalai (2)  18:11+1:5018:13+2:002m--167.646329mWCRItarsi, Madhya Pradesh
43BGTABagra Tawa (2)X  18:22+2:0118:24+2:022m--174.571338mWCRBagra Tawa, Madhya Pradesh
44GMDGuramkhedi (2)  18:35+2:0318:37+2:052m--187.660337mWCRSohagpur, Madhya Pradesh
45SGPSohagpur (2)XO  18:47+2:0518:49+2:152m--197.660340mWCRSohagpur, Madhya Pradesh
46SXFSobhapur (2)  18:58+2:1619:00+2:162m--1106.665338mWCRState Highway 22, Madhya Pradesh
47PPIPipariya (3)X  19:08+2:2019:09+2:391m31115.376338mWCRPiparia, Madhya Pradesh
48BKHBankhedi (2)X  19:24+2:3819:25+2:421m--1134.248351mWCRBankheri, Madhya Pradesh
49JHTJunehta (2)X  19:33+2:4119:34+2:411m--1140.661353mWCRState Highway 22, Madhya Pradesh
50SCKRSalichauka Road (2)X  19:44+2:4119:45+2:511m--1150.870355mWCRGadarwara, Madhya Pradesh
51GARGadarwara (2)  19:57+2:5219:58+3:081m11164.765352mWCRNarsinghpur, Madhya Pradesh
52BNEBohani (2)O  20:10+3:0520:11+3:181m21177.645361mWCRNarsinghpur, Madhya Pradesh
53KFYKarapgaon (2)X  20:20+3:1720:21+3:171m--1184.438364mWCRNational Highway 26, Madhya Pradesh
54KYKareli (2)X  20:34+3:1320:35+3:301m11192.643361mWCRKareli, Madhya Pradesh
55NUNarsinghpur (2)  20:58+3:2321:00+3:382m11209.050365mWCRNarsimhapur, Madhya Pradesh
56GPCGhatpindrai (2)X  21:07+3:3921:08+3:481m--1214.837366mWCRGhatpindra, Madhya Pradesh
57BELDBelkhera (2)O  21:17+3:4521:18+3:471m--1220.333367mWCRState Highway 22, Madhya Pradesh
58KKBKarak Bel (2)XO  21:26+3:4521:28+3:492m11224.713375mWCRKarak Bel, Madhya Pradesh
59SRIDShridham (3)O  22:38+2:5122:40+3:072m21240.055373mWCRShridham, Madhya Pradesh
60BMRBikrampur (2)  22:53+3:1222:54+3:141m--1251.958353mWCRBikrampur Dist Narsingpur., Madhya Pradesh
61BHTNBhitoni (2)X  23:06+3:1223:07+3:151m--1263.566377mWCRJabalpur, Madhya Pradesh
62BRGTBheraghat (2)X  23:19+3:1323:20+3:141m--1276.618389mWCRBheraghat, Madhya Pradesh
63MMLMadan Mahal (3)  00:03+2:4300:05+2:432m32289.76428mWCRJabalpur, Madhya Pradesh
64JBPJabalpur Junction (7)X  00:40+2:3400:50+2:4610m--2293.344416mWCRJabalpur, Madhya Pradesh
65ADTLAdhartal (2)  01:01+2:4001:03+2:422m--2301.259393mWCRJabalpur, Madhya Pradesh
66DOEDeori (2)X  01:12+2:4101:14+2:432m--2310.063392mWCRJabalpur, Madhya Pradesh
67GSPRGosalpur (2)X  01:24+2:4201:26+2:442m--2320.674396mWCRJabalpur, Madhya Pradesh
68SHRSihora Road (2)X  01:35+2:4201:37+2:482m--2331.675388mWCRJabalpur, Madhya Pradesh
69DDCEDundi (2)O  01:49+2:5001:51+2:522m--2346.671415mWCRDundi, Madhya Pradesh
70SBDSleemanabad Road (2)X  01:59+2:5002:01+2:532m--2356.141434mWCRSleemanabad, Madhya Pradesh
71SNRRSansarpur (2)  02:11+2:3502:13+2:352m--2363.018436mWCRNational Highway 7, Madhya Pradesh
72NWRNiwar (2)  02:39+2:3402:40+2:351m--2370.769412mWCRPipraundh, Madhya Pradesh
73MDRRMadhavnagar Road (2)X  02:47+2:4502:49+2:452m--2378.89398mWCRMadhavnagar, Madhya Pradesh
74KTE•Katni Junction (6)•  03:25+3:27---2383.9-387mWCRKatni, Madhya Pradesh
Scroll to Top
Scroll to Bottom